createdAt,value
2018-03-22T00:03:56.537Z,101816.50
2018-03-22T00:08:59.011Z,101804.13
2018-03-22T00:14:01.535Z,101801.08
2018-03-22T00:19:04.049Z,101799.98
2018-03-22T00:24:06.519Z,101800.28
2018-03-22T00:29:09.000Z,101781.30
2018-03-22T00:34:11.527Z,101773.65
2018-03-22T00:39:14.151Z,101768.30
2018-03-22T00:44:16.633Z,101760.25
2018-03-22T00:49:19.184Z,101755.67
2018-03-22T00:54:21.691Z,101747.80
2018-03-22T00:59:24.192Z,101740.09
2018-03-22T01:04:26.648Z,101734.00
2018-03-22T01:09:29.117Z,101720.06
2018-03-22T01:14:31.589Z,101713.34
2018-03-22T01:19:34.066Z,101690.76
2018-03-22T01:24:37.422Z,101685.33
2018-03-22T01:29:40.035Z,101673.41
2018-03-22T01:34:42.674Z,101658.97
2018-03-22T01:39:46.094Z,101655.70
2018-03-22T01:44:48.585Z,101643.63
2018-03-22T01:49:51.068Z,101628.35
2018-03-22T01:54:53.555Z,101623.55
2018-03-22T01:59:56.006Z,101612.13
2018-03-22T02:04:58.476Z,101604.71
2018-03-22T02:10:00.990Z,101594.06
2018-03-22T02:15:03.436Z,101577.34
2018-03-22T02:20:05.920Z,101566.54
2018-03-22T02:25:08.393Z,101557.70
2018-03-22T02:30:10.860Z,101551.78
2018-03-22T02:35:13.338Z,101542.73
2018-03-22T02:40:16.215Z,101536.30
2018-03-22T02:45:18.792Z,101528.63
2018-03-22T02:50:21.308Z,101528.56
2018-03-22T02:55:23.793Z,101510.73
2018-03-22T03:00:26.324Z,101501.53
2018-03-22T03:05:28.751Z,101493.95
2018-03-22T03:10:31.193Z,101484.70
2018-03-22T03:15:33.655Z,101469.73
2018-03-22T03:20:36.127Z,101460.27
2018-03-22T03:25:38.602Z,101438.02
2018-03-22T03:30:41.056Z,101429.86
2018-03-22T03:35:43.620Z,101425.72
2018-03-22T03:40:46.152Z,101418.94
2018-03-22T03:45:48.921Z,101399.48
2018-03-22T03:50:51.558Z,101394.20
2018-03-22T03:55:54.049Z,101377.49
2018-03-22T04:00:56.512Z,101367.52
2018-03-22T04:05:58.980Z,101373.42
2018-03-22T04:11:01.534Z,101375.59
2018-03-22T04:16:04.016Z,101358.41
2018-03-22T04:21:06.488Z,101345.55
2018-03-22T04:26:08.941Z,101342.27
2018-03-22T04:31:11.422Z,101337.85
2018-03-22T04:36:14.194Z,101333.80
2018-03-22T04:41:16.752Z,101320.61
2018-03-22T04:46:19.243Z,101307.29
2018-03-22T04:51:21.744Z,101302.98
2018-03-22T04:56:24.219Z,101295.66
2018-03-22T05:01:26.718Z,101288.90
2018-03-22T05:06:29.195Z,101278.42
2018-03-22T05:11:31.679Z,101270.38
2018-03-22T05:16:34.167Z,101270.55
2018-03-22T05:21:36.685Z,101262.08
2018-03-22T05:26:39.154Z,101251.53
2018-03-22T05:31:41.680Z,101258.30
2018-03-22T05:36:44.173Z,101267.56
2018-03-22T05:41:46.781Z,101269.30
2018-03-22T05:46:49.298Z,101244.00
2018-03-22T05:51:51.952Z,101231.11
2018-03-22T05:56:54.428Z,101230.26
2018-03-22T06:01:56.914Z,101221.59
2018-03-22T06:06:59.408Z,101210.69
2018-03-22T06:12:01.967Z,101201.09
2018-03-22T06:17:04.916Z,101186.08
2018-03-22T06:22:07.514Z,101183.22
2018-03-22T06:27:09.998Z,101166.27
2018-03-22T06:32:12.497Z,101165.34
2018-03-22T06:37:15.001Z,101145.01
2018-03-22T06:42:17.516Z,101132.69
2018-03-22T06:47:20.064Z,101125.66
2018-03-22T06:52:22.601Z,101114.05
2018-03-22T06:57:25.277Z,101109.89
2018-03-22T07:02:27.769Z,101098.62
2018-03-22T07:07:30.243Z,101092.89
2018-03-22T07:12:32.715Z,101077.00
2018-03-22T07:17:35.235Z,101064.19
2018-03-22T07:22:37.725Z,101056.44
2018-03-22T07:27:40.196Z,101046.80
2018-03-22T07:32:42.655Z,101044.63
2018-03-22T07:37:45.952Z,101039.30
2018-03-22T07:42:53.985Z,101018.50
2018-03-22T07:47:56.451Z,101014.13
2018-03-22T07:52:58.915Z,101002.98
2018-03-22T07:58:01.499Z,101000.35
2018-03-22T08:03:03.977Z,100992.30
2018-03-22T08:08:06.488Z,100993.61
2018-03-22T08:13:08.995Z,100988.13
2018-03-22T08:18:11.468Z,100987.38
2018-03-22T08:23:13.956Z,100977.30
2018-03-22T08:28:16.516Z,100969.09
2018-03-22T08:33:19.097Z,100966.39
2018-03-22T08:38:21.650Z,100968.14
2018-03-22T08:43:24.182Z,100966.84
2018-03-22T08:48:26.664Z,100967.75
2018-03-22T08:53:29.147Z,100958.90
2018-03-22T08:58:31.646Z,100938.77
2018-03-22T09:03:34.151Z,100933.88
2018-03-22T09:08:36.846Z,100930.70
2018-03-22T09:13:39.783Z,100921.37
2018-03-22T09:18:42.324Z,100913.28
2018-03-22T09:23:44.831Z,100905.69
2018-03-22T09:28:47.413Z,100908.57
2018-03-22T09:33:50.063Z,100895.23
2018-03-22T09:38:52.544Z,100886.92
2018-03-22T09:43:55.039Z,100872.19
2018-03-22T09:48:57.520Z,100882.84
2018-03-22T09:53:59.975Z,100869.64
2018-03-22T09:59:02.446Z,100862.52
2018-03-22T10:04:04.937Z,100857.44
2018-03-22T10:09:08.256Z,100850.06
2018-03-22T10:14:10.753Z,100851.41
2018-03-22T10:19:13.252Z,100842.04
2018-03-22T10:24:16.395Z,100839.42
2018-03-22T10:29:18.967Z,100838.61
2018-03-22T10:34:21.439Z,100838.95
2018-03-22T10:39:24.719Z,100839.48
2018-03-22T10:44:27.190Z,100830.02
2018-03-22T10:49:29.645Z,100829.02
2018-03-22T10:54:32.088Z,100808.88
2018-03-22T10:59:34.717Z,100814.74
2018-03-22T11:04:37.214Z,100815.99
2018-03-22T11:09:39.921Z,100812.92
2018-03-22T11:14:42.400Z,100801.89
2018-03-22T11:19:44.941Z,100798.84
2018-03-22T11:24:47.536Z,100795.33
2018-03-22T11:29:50.237Z,100793.95
2018-03-22T11:34:52.749Z,100785.80
2018-03-22T11:39:55.214Z,100774.50
2018-03-22T11:44:57.690Z,100776.91
2018-03-22T11:50:00.157Z,100774.42
2018-03-22T11:55:02.638Z,100768.77
2018-03-22T12:00:05.524Z,100765.23
2018-03-22T12:05:08.445Z,100762.91
2018-03-22T12:10:11.421Z,100752.95
2018-03-22T12:15:16.954Z,100743.11
2018-03-22T12:20:22.272Z,100738.56
2018-03-22T12:25:24.792Z,100739.25
2018-03-22T12:30:27.260Z,100738.72
2018-03-22T12:35:29.977Z,100736.39
2018-03-22T12:40:32.467Z,100721.73
2018-03-22T12:45:34.958Z,100719.13
2018-03-22T12:50:37.641Z,100716.77
2018-03-22T12:55:40.346Z,100715.05
2018-03-22T13:00:44.567Z,100710.53
2018-03-22T13:05:47.090Z,100705.23
2018-03-22T13:10:49.587Z,100705.61
2018-03-22T13:15:52.684Z,100702.59
2018-03-22T13:20:55.207Z,100699.84
2018-03-22T13:25:57.683Z,100693.47
2018-03-22T13:31:00.146Z,100693.64
2018-03-22T13:36:02.624Z,100691.30
2018-03-22T13:41:05.175Z,100689.30
2018-03-22T13:46:07.690Z,100686.92
2018-03-22T13:51:10.161Z,100680.42
2018-03-22T13:56:12.633Z,100686.92
2018-03-22T14:01:15.492Z,100688.79
2018-03-22T14:06:18.059Z,100684.13
2018-03-22T14:11:20.550Z,100683.65
2018-03-22T14:16:23.805Z,100690.36
2018-03-22T14:21:26.515Z,100685.76
2018-03-22T14:26:28.996Z,100676.39
2018-03-22T14:31:36.423Z,100667.24
2018-03-22T14:36:39.141Z,100663.27
2018-03-22T14:41:41.763Z,100664.92
2018-03-22T14:46:45.025Z,100659.17
2018-03-22T14:51:47.690Z,100651.83
2018-03-22T14:56:50.219Z,100651.48
2018-03-22T15:01:54.776Z,100645.17
2018-03-22T15:06:58.502Z,100650.69
2018-03-22T15:12:03.794Z,100645.78
2018-03-22T15:17:09.310Z,100644.24
2018-03-22T15:22:12.108Z,100640.64
2018-03-22T15:27:14.904Z,100641.15
2018-03-22T15:32:17.484Z,100642.53
2018-03-22T15:37:20.003Z,100642.47
2018-03-22T15:42:22.978Z,100631.39
2018-03-22T15:47:25.445Z,100633.89
2018-03-22T15:52:28.075Z,100643.13
2018-03-22T15:57:31.118Z,100642.95
2018-03-22T16:02:33.657Z,100646.59
2018-03-22T16:07:36.171Z,100651.28
2018-03-22T16:12:40.975Z,100647.86
2018-03-22T16:17:47.619Z,100656.08
2018-03-22T16:22:52.715Z,100659.23
2018-03-22T16:27:56.998Z,100651.27
2018-03-22T16:33:01.961Z,100652.55
2018-03-22T16:38:07.271Z,100651.58
2018-03-22T16:43:10.807Z,100642.47
2018-03-22T16:48:15.371Z,100649.50
2018-03-22T16:53:19.280Z,100638.92
2018-03-22T16:58:24.307Z,100636.75
2018-03-22T17:03:28.375Z,100642.22
2018-03-22T17:08:33.162Z,100649.37
2018-03-22T17:13:38.812Z,100643.44
2018-03-22T17:18:41.946Z,100645.66
2018-03-22T17:23:44.811Z,100643.94
2018-03-22T17:28:47.344Z,100646.14
2018-03-22T17:33:49.910Z,100643.77
2018-03-22T17:38:52.432Z,100637.22
2018-03-22T17:43:54.941Z,100649.71
2018-03-22T17:48:57.466Z,100643.36
2018-03-22T17:53:59.915Z,100642.45
2018-03-22T17:59:02.435Z,100646.47
2018-03-22T18:04:04.911Z,100657.89
2018-03-22T18:09:08.496Z,100656.05
2018-03-22T18:14:11.344Z,100654.14
2018-03-22T18:19:14.117Z,100658.69
2018-03-22T18:24:17.172Z,100655.10
2018-03-22T18:29:20.162Z,100657.41
2018-03-22T18:34:22.644Z,100652.88
2018-03-22T18:39:25.133Z,100644.27
2018-03-22T18:44:27.653Z,100643.94
2018-03-22T18:49:30.134Z,100643.58
2018-03-22T18:54:32.700Z,100648.97
2018-03-22T18:59:39.148Z,100650.14
2018-03-22T19:04:41.897Z,100647.97
2018-03-22T19:09:45.322Z,100642.92
2018-03-22T19:14:48.948Z,100632.72
2018-03-22T19:19:51.728Z,100629.59
2018-03-22T19:24:54.217Z,100625.83
2018-03-22T19:29:56.735Z,100625.73
2018-03-22T19:34:59.207Z,100629.70
2018-03-22T19:40:01.716Z,100630.28
2018-03-22T19:45:04.219Z,100633.13
2018-03-22T19:50:06.717Z,100641.17
2018-03-22T19:55:09.458Z,100641.20
2018-03-22T20:00:11.949Z,100646.52
2018-03-22T20:05:14.471Z,100652.47
2018-03-22T20:10:19.023Z,100649.44
2018-03-22T20:15:27.660Z,100643.22
2018-03-22T20:20:35.205Z,100640.59
2018-03-22T20:25:43.309Z,100644.80
2018-03-22T20:30:52.322Z,100656.23
2018-03-22T20:35:58.969Z,100644.30
2018-03-22T20:41:03.607Z,100647.06
2018-03-22T20:46:07.926Z,100650.30
2018-03-22T20:51:12.762Z,100643.89
2018-03-22T20:56:17.070Z,100638.56
2018-03-22T21:01:22.680Z,100636.67
2018-03-22T21:06:28.785Z,100633.41
2018-03-22T21:11:33.098Z,100631.72
2018-03-22T21:16:37.024Z,100628.03
2018-03-22T21:21:45.165Z,100631.40
2018-03-22T21:26:50.025Z,100642.66
2018-03-22T21:31:52.924Z,100637.86
2018-03-22T21:36:55.404Z,100637.66
2018-03-22T21:42:06.460Z,100630.15
2018-03-22T21:47:20.805Z,100626.63
2018-03-22T21:52:35.365Z,100630.19
2018-03-22T21:57:37.856Z,100630.38
2018-03-22T22:02:40.372Z,100627.19
2018-03-22T22:07:42.866Z,100634.36
2018-03-22T22:12:45.419Z,100631.73
2018-03-22T22:17:48.018Z,100625.42
2018-03-22T22:22:50.547Z,100629.86
2018-03-22T22:27:53.070Z,100623.69
2018-03-22T22:32:55.565Z,100627.45
2018-03-22T22:37:58.025Z,100630.92
2018-03-22T22:43:01.120Z,100624.51
2018-03-22T22:48:03.605Z,100616.59
2018-03-22T22:53:06.118Z,100613.85
2018-03-22T22:58:08.592Z,100616.91
2018-03-22T23:03:11.098Z,100613.88
2018-03-22T23:08:13.652Z,100608.61
2018-03-22T23:13:16.161Z,100610.25
2018-03-22T23:18:18.663Z,100615.30
2018-03-22T23:23:21.174Z,100607.97
2018-03-22T23:28:23.688Z,100609.23
2018-03-22T23:33:26.138Z,100601.89
2018-03-22T23:38:29.029Z,100600.98
2018-03-22T23:43:31.583Z,100603.27
2018-03-22T23:48:34.040Z,100599.56
2018-03-22T23:53:37.498Z,100603.19
2018-03-22T23:58:39.962Z,100598.79
